Time;durP1;ratioP1;P1;durP2;ratioP2;P2;SDS_P1;SDS_P2;PMS_P1;PMS_P2;Temp;Humidity;BMP_temperature;BMP_pressure;BME280_temperature;BME280_humidity;BME280_pressure;Samples;Min_cycle;Max_cycle;Signal;HPM_P1;HPM_P2
2021/05/13 00:00:45;;;;;;;0.30;0.30;;;;;;;;;;5031321;28;20529;-81
2021/05/13 00:03:11;;;;;;;0.40;0.40;;;;;;;;;;5028022;28;20109;-81
2021/05/13 00:05:37;;;;;;;0.30;0.30;;;;;;;;;;5030634;28;20544;-82
2021/05/13 00:08:03;;;;;;;0.38;0.38;;;;;;;;;;5021081;28;20033;-81
2021/05/13 00:10:29;;;;;;;0.60;0.50;;;;;;;;;;5031828;28;20029;-81
2021/05/13 00:13:00;;;;;;;0.40;0.40;;;;;;;;;;5028670;28;20033;-82
2021/05/13 00:15:36;;;;;;;0.28;0.28;;;13.70;67.80;;;;;;5027573;28;20108;-81
2021/05/13 00:18:02;;;;;;;0.30;0.30;;;;;;;;;;5028521;28;20071;-82
2021/05/13 00:20:32;;;;;;;0.30;0.30;;;13.50;60.10;;;;;;5029945;28;20057;-82
2021/05/13 00:22:58;;;;;;;0.52;0.40;;;13.60;60.60;;;;;;5025397;28;20026;-81
2021/05/13 00:25:24;;;;;;;0.25;0.25;;;;;;;;;;5030440;28;20108;-82
2021/05/13 00:27:51;;;;;;;0.47;0.38;;;;;;;;;;5023385;28;20380;-81
2021/05/13 00:30:17;;;;;;;0.30;0.30;;;;;;;;;;5030346;28;20053;-82
2021/05/13 00:32:43;;;;;;;0.40;0.40;;;;;;;;;;5028769;28;20087;-81
2021/05/13 00:35:11;;;;;;;0.88;0.50;;;;;;;;;;5030376;28;20029;-82
2021/05/13 00:37:36;;;;;;;;;;;13.70;62.30;;;;;;5030103;28;20046;-81
2021/05/13 00:40:04;;;;;;;0.68;0.68;;;13.50;50.10;;;;;;5030452;28;19961;-81
2021/05/13 00:42:30;;;;;;;0.60;0.50;;;;;;;;;;5029386;28;20112;-82
2021/05/13 00:44:56;;;;;;;0.30;0.30;;;;;;;;;;5022220;28;20116;-81
2021/05/13 00:47:25;;;;;;;1.30;0.90;;;;;;;;;;5030438;28;20454;-82
2021/05/13 00:49:51;;;;;;;0.43;0.43;;;;;;;;;;5027842;28;20113;-81
2021/05/13 00:52:19;;;;;;;0.80;0.80;;;12.70;49.80;;;;;;5030751;28;20044;-81
2021/05/13 00:54:45;;;;;;;1.75;1.10;;;;;;;;;;5029313;28;20022;-81
2021/05/13 00:57:12;;;;;;;1.13;0.60;;;12.70;50.90;;;;;;5029982;28;20112;-80
2021/05/13 00:59:41;;;;;;;0.75;0.50;;;;;;;;;;5026034;28;20051;-80
2021/05/13 01:02:07;;;;;;;1.25;0.47;;;;;;;;;;5029982;28;20084;-80
2021/05/13 01:04:33;;;;;;;0.70;0.50;;;;;;;;;;5022175;28;20037;-81
2021/05/13 01:06:59;;;;;;;0.60;0.60;;;;;;;;;;5025575;28;20049;-80
2021/05/13 01:09:27;;;;;;;0.63;0.63;;;;;;;;;;5026007;28;20035;-81
2021/05/13 01:12:01;;;;;;;0.50;0.50;;;;;;;;;;5025934;28;20461;-81
2021/05/13 01:19:48;;;;;;;1.52;1.30;;;13.10;45.30;;;;;;5024756;28;20026;-81
2021/05/13 01:22:15;;;;;;;0.50;0.50;;;13.20;45.60;;;;;;5028352;28;20061;-80
2021/05/13 01:24:41;;;;;;;0.75;0.45;;;;;;;;;;5027189;28;20524;-81
2021/05/13 01:27:07;;;;;;;2.75;0.95;;;;;;;;;;5035372;28;20800;-80
2021/05/13 01:29:33;;;;;;;0.52;0.52;;;;;;;;;;5027087;28;20513;-81
2021/05/13 01:31:59;;;;;;;0.45;0.40;;;;;;;;;;5029702;28;20376;-81
2021/05/13 01:34:26;;;;;;;2.20;0.85;;;;;;;;;;5027860;28;20022;-82
2021/05/13 01:36:52;;;;;;;1.35;0.45;;;;;;;;;;5029556;28;20043;-81
2021/05/13 01:39:18;;;;;;;0.65;0.55;;;;;;;;;;5028806;28;20021;-80
2021/05/13 01:41:44;;;;;;;1.60;1.00;;;;;;;;;;5039052;28;20029;-82
2021/05/13 01:44:10;;;;;;;2.00;0.90;;;12.60;46.40;;;;;;5029098;28;20589;-81
2021/05/13 01:46:37;;;;;;;0.88;0.50;;;12.60;46.70;;;;;;5026608;28;20501;-81
2021/05/13 01:49:04;;;;;;;0.75;0.65;;;;;;;;;;5027454;28;20104;-80
2021/05/13 01:51:30;;;;;;;1.63;0.60;;;;;;;;;;5027781;28;20037;-81
2021/05/13 01:53:56;;;;;;;5.72;2.00;;;;;;;;;;5029068;28;20072;-81
2021/05/13 01:56:22;;;;;;;8.13;0.70;;;;;;;;;;5024509;28;20068;-81
2021/05/13 01:58:48;;;;;;;0.85;0.70;;;;;;;;;;5029455;28;20030;-80
2021/05/13 02:01:15;;;;;;;6.13;0.82;;;;;;;;;;5022063;28;20372;-81
2021/05/13 02:03:43;;;;;;;1.00;0.88;;;12.60;46.00;;;;;;5023832;28;20025;-81
2021/05/13 02:06:10;;;;;;;1.08;1.05;;;12.50;46.70;;;;;;5027368;28;20040;-81
2021/05/13 02:08:36;;;;;;;2.10;1.07;;;;;;;;;;5029188;28;20030;-81
2021/05/13 02:11:03;;;;;;;1.92;0.60;;;12.40;46.50;;;;;;5026492;28;20087;-81
2021/05/13 02:13:30;;;;;;;4.90;0.77;;;;;;;;;;5029068;28;20036;-81
2021/05/13 02:15:56;;;;;;;0.93;0.70;;;;;;;;;;5026376;28;20030;-82
2021/05/13 02:18:22;;;;;;;6.13;0.77;;;;;;;;;;5023088;28;20029;-82
2021/05/13 02:20:48;;;;;;;2.85;0.80;;;12.40;46.10;;;;;;5027790;28;20029;-80
2021/05/13 02:23:15;;;;;;;3.60;1.30;;;12.40;46.20;;;;;;5026741;28;20026;-81
2021/05/13 02:25:44;;;;;;;1.92;0.65;;;;;;;;;;5028865;28;20033;-81
2021/05/13 02:28:10;;;;;;;0.63;0.63;;;;;;;;;;5024649;28;20017;-81
2021/05/13 02:30:36;;;;;;;1.25;0.88;;;;;;;;;;5028309;28;20428;-81
2021/05/13 02:33:02;;;;;;;1.27;1.05;;;;;;;;;;5025919;28;20036;-80
2021/05/13 02:35:28;;;;;;;1.58;0.93;;;;;;;;;;5028100;28;20132;-82
2021/05/13 02:37:54;;;;;;;1.52;0.77;;;;;;;;;;5019725;28;20028;-81
2021/05/13 02:40:20;;;;;;;2.05;1.40;;;;;;;;;;5029256;28;20030;-80
2021/05/13 02:42:46;;;;;;;1.17;0.73;;;;;;;;;;5027253;28;20387;-80
2021/05/13 02:45:13;;;;;;;0.32;0.32;;;12.20;44.90;;;;;;5029067;28;20121;-81
2021/05/13 02:47:39;;;;;;;3.72;0.47;;;;;;;;;;5030608;28;20037;-80
2021/05/13 02:50:07;;;;;;;1.80;0.80;;;12.20;44.80;;;;;;5032446;28;20079;-81
2021/05/13 02:52:33;;;;;;;0.50;0.50;;;;;;;;;;5041261;28;20029;-81
2021/05/13 02:54:59;;;;;;;6.70;1.23;;;;;;;;;;5032343;28;20030;-81
2021/05/13 02:57:25;;;;;;;1.02;0.80;;;;;;;;;;5031582;28;20027;-80
2021/05/13 03:02:35;;;;;;;1.23;0.95;;;;;;;;;;5017008;28;20467;-80
2021/05/13 03:05:01;;;;;;;0.60;0.60;;;;;;;;;;5032439;28;20049;-81
2021/05/13 03:07:27;;;;;;;0.93;0.47;;;;;;;;;;5031888;28;20482;-81
2021/05/13 03:09:58;;;;;;;0.52;0.45;;;;;;;;;;5027555;28;20033;-81
2021/05/13 03:12:24;;;;;;;0.50;0.50;;;;;;;;;;5031590;28;20297;-81
2021/05/13 03:14:51;;;;;;;1.63;0.80;;;;;;;;;;5024439;28;20064;-81
2021/05/13 03:17:17;;;;;;;1.80;1.00;;;;;;;;;;5031892;28;20136;-82
2021/05/13 03:19:46;;;;;;;0.65;0.52;;;;;;;;;;5030737;28;20566;-81
2021/05/13 03:22:16;;;;;;;4.68;0.50;;;;;;;;;;5031279;28;20030;-81
2021/05/13 03:29:37;;;;;;;0.35;0.35;;;;;;;;;;5027198;28;20034;-80
2021/05/13 03:32:03;;;;;;;2.58;0.50;;;;;;;;;;5031793;28;20057;-82
2021/05/13 03:34:29;;;;;;;4.10;1.00;;;;;;;;;;5025072;28;20017;-80
2021/05/13 03:36:55;;;;;;;0.50;0.50;;;;;;;;;;5028594;28;20040;-81
2021/05/13 03:39:21;;;;;;;0.50;0.50;;;;;;;;;;5027384;28;20500;-81
2021/05/13 03:41:47;;;;;;;1.00;0.60;;;;;;;;;;5030249;28;20075;-80
2021/05/13 03:44:13;;;;;;;1.30;0.60;;;;;;;;;;5028868;28;20410;-80
2021/05/13 03:46:39;;;;;;;0.68;0.47;;;;;;;;;;5032480;28;20063;-80
2021/05/13 03:49:05;;;;;;;0.82;0.50;;;;;;;;;;5028570;28;20554;-81
2021/05/13 03:51:31;;;;;;;0.82;0.65;;;;;;;;;;5027233;28;20026;-81
2021/05/13 03:53:57;;;;;;;3.50;0.70;;;;;;;;;;5028950;28;20026;-80
2021/05/13 03:56:23;;;;;;;0.60;0.57;;;;;;;;;;5032971;28;20037;-81
2021/05/13 03:58:57;;;;;;;3.53;0.70;;;;;;;;;;5030533;28;20501;-81
2021/05/13 04:04:27;;;;;;;1.10;0.88;;;;;;;;;;5007330;28;20064;-81
2021/05/13 04:06:53;;;;;;;0.68;0.68;;;;;;;;;;5002674;28;20082;-80
2021/05/13 04:09:19;;;;;;;2.83;1.15;;;;;;;;;;5000542;28;20041;-81
2021/05/13 04:11:45;;;;;;;9.63;1.10;;;;;;;;;;5004186;28;20037;-81
2021/05/13 04:14:12;;;;;;;0.40;0.40;;;;;;;;;;5008567;28;20470;-81
2021/05/13 04:16:41;;;;;;;0.70;0.43;;;;;;;;;;4996792;28;20049;-80
2021/05/13 04:19:07;;;;;;;0.60;0.60;;;;;;;;;;5008563;28;20030;-81
2021/05/13 04:21:33;;;;;;;1.15;0.73;;;;;;;;;;5007146;28;20041;-81
2021/05/13 04:23:59;;;;;;;0.80;0.50;;;;;;;;;;5007650;28;20491;-81
2021/05/13 04:26:25;;;;;;;0.43;0.40;;;;;;;;;;5003909;28;20121;-81
2021/05/13 04:28:51;;;;;;;1.23;0.63;;;;;;;;;;4993109;28;20499;-81
2021/05/13 04:31:18;;;;;;;0.68;0.43;;;;;;;;;;4985560;28;20184;-81
2021/05/13 04:33:43;;;;;;;2.03;0.75;;;;;;;;;;5008057;28;20100;-80
2021/05/13 04:36:10;;;;;;;2.47;0.50;;;;;;;;;;5019752;28;20073;-81
2021/05/13 04:38:36;;;;;;;1.15;0.68;;;;;;;;;;5030899;28;20026;-81
2021/05/13 04:41:02;;;;;;;1.48;0.55;;;12.30;46.00;;;;;;5028198;28;20032;-80
2021/05/13 04:43:38;;;;;;;0.43;0.43;;;12.30;45.80;;;;;;5031904;28;20060;-80
2021/05/13 04:46:06;;;;;;;1.85;0.50;;;;;;;;;;5026720;28;20029;-81
2021/05/13 04:51:16;;;;;;;2.70;0.68;;;12.40;47.30;;;;;;5029170;28;20033;-80
2021/05/13 04:53:43;;;;;;;0.97;0.80;;;;;;;;;;5019208;28;20092;-81
2021/05/13 04:56:09;;;;;;;3.00;0.70;;;;;;;;;;5028013;28;20264;-80
2021/05/13 04:58:35;;;;;;;2.40;0.40;;;;;;;;;;5028406;28;20025;-81
2021/05/13 05:01:01;;;;;;;1.83;1.05;;;;;;;;;;5029952;28;20568;-81
2021/05/13 05:03:27;;;;;;;3.10;0.70;;;;;;;;;;5027255;28;20052;-81
2021/05/13 05:05:53;;;;;;;0.70;0.52;;;;;;;;;;5029603;28;20041;-81
2021/05/13 05:08:19;;;;;;;2.58;1.83;;;;;;;;;;5020341;28;20040;-81
2021/05/13 05:10:46;;;;;;;0.40;0.40;;;;;;;;;;5030553;28;20116;-81
2021/05/13 05:13:12;;;;;;;4.22;0.77;;;;;;;;;;5027700;28;20025;-81
2021/05/13 05:15:38;;;;;;;0.57;0.57;;;;;;;;;;5026393;28;20573;-81
2021/05/13 05:18:04;;;;;;;0.73;0.47;;;;;;;;;;5026810;28;20120;-81
2021/05/13 05:20:30;;;;;;;0.40;0.40;;;;;;;;;;5030047;28;20040;-81
2021/05/13 05:22:56;;;;;;;1.25;0.50;;;;;;;;;;5024393;28;20471;-81
2021/05/13 05:25:22;;;;;;;0.57;0.57;;;;;;;;;;5030076;28;20021;-81
2021/05/13 05:27:48;;;;;;;1.20;0.52;;;;;;;;;;5024210;28;20115;-81
2021/05/13 05:30:14;;;;;;;5.15;0.60;;;;;;;;;;5028918;28;20132;-81
2021/05/13 05:32:40;;;;;;;4.25;1.35;;;;;;;;;;5027499;28;20030;-79
2021/05/13 05:35:06;;;;;;;1.50;0.60;;;;;;;;;;5028889;28;20018;-81
2021/05/13 05:37:33;;;;;;;0.85;0.35;;;;;;;;;;5026306;28;20113;-82
2021/05/13 05:40:01;;;;;;;0.57;0.50;;;;;;;;;;5029326;28;20083;-81
2021/05/13 05:42:28;;;;;;;2.78;0.50;;;;;;;;;;5028769;28;20041;-81
2021/05/13 05:44:54;;;;;;;1.40;0.52;;;;;;;;;;5022063;28;20040;-81
2021/05/13 05:47:20;;;;;;;1.30;0.73;;;;;;;;;;5029744;28;20410;-80
2021/05/13 05:49:46;;;;;;;2.08;0.80;;;;;;;;;;5027649;28;20024;-81
2021/05/13 05:52:13;;;;;;;2.75;0.77;;;;;;;;;;5028203;28;20631;-81
2021/05/13 05:54:39;;;;;;;1.30;1.08;;;;;;;;;;5028309;28;20517;-81
2021/05/13 05:57:05;;;;;;;1.02;0.50;;;;;;;;;;5029158;28;20829;-80
2021/05/13 05:59:31;;;;;;;0.63;0.57;;;;;;;;;;5025477;28;20091;-81
2021/05/13 06:01:57;;;;;;;6.18;0.88;;;;;;;;;;5029337;28;20021;-81
2021/05/13 06:04:23;;;;;;;1.10;0.82;;;;;;;;;;5024157;28;20025;-81
2021/05/13 06:06:49;;;;;;;4.97;1.08;;;;;;;;;;5029042;28;20490;-81
2021/05/13 06:09:15;;;;;;;2.92;0.75;;;;;;;;;;5024989;28;20053;-81
2021/05/13 06:11:41;;;;;;;1.08;0.70;;;;;;;;;;5024670;28;20148;-81
2021/05/13 06:14:07;;;;;;;3.50;1.65;;;;;;;;;;5026329;28;20021;-82
2021/05/13 06:16:33;;;;;;;3.92;2.63;;;;;;;;;;5028979;28;20117;-81
2021/05/13 06:18:59;;;;;;;3.92;1.33;;;12.80;47.10;;;;;;5026554;28;20029;-81
2021/05/13 06:21:26;;;;;;;3.40;1.00;;;12.90;47.70;;;;;;5024850;28;20079;-81
2021/05/13 06:23:54;;;;;;;0.93;0.70;;;13.00;46.00;;;;;;5028032;28;20053;-81
2021/05/13 06:26:24;;;;;;;1.05;0.70;;;13.00;46.60;;;;;;5024629;28;20557;-81
2021/05/13 06:28:50;;;;;;;5.05;1.63;;;;;;;;;;5025500;28;20027;-81
2021/05/13 06:31:16;;;;;;;2.15;1.23;;;;;;;;;;5025726;28;20055;-82
2021/05/13 06:33:42;;;;;;;3.25;1.15;;;;;;;;;;5028608;28;20041;-81
2021/05/13 06:36:08;;;;;;;3.55;0.70;;;;;;;;;;5026411;28;20462;-82
2021/05/13 06:38:34;;;;;;;1.73;0.75;;;;;;;;;;5027715;28;20505;-80
2021/05/13 06:41:01;;;;;;;12.88;1.48;;;;;;;;;;5018234;28;20018;-79
2021/05/13 06:43:27;;;;;;;2.22;0.75;;;;;;;;;;5029242;28;20095;-81
2021/05/13 06:45:53;;;;;;;6.18;0.70;;;;;;;;;;5026062;28;20605;-81
2021/05/13 06:48:19;;;;;;;5.75;0.73;;;;;;;;;;5024414;28;20047;-81
2021/05/13 06:50:45;;;;;;;1.15;0.70;;;;;;;;;;5026367;28;20520;-80
2021/05/13 06:53:11;;;;;;;3.47;1.20;;;;;;;;;;5028341;28;20025;-81
2021/05/13 06:55:37;;;;;;;5.43;1.73;;;;;;;;;;5027180;28;20398;-81
2021/05/13 06:58:03;;;;;;;1.05;0.88;;;;;;;;;;5026464;28;20107;-81
2021/05/13 07:00:29;;;;;;;1.77;1.33;;;;;;;;;;5025032;28;20025;-81
2021/05/13 07:02:55;;;;;;;3.53;1.30;;;;;;;;;;5026047;28;20037;-80
2021/05/13 07:05:21;;;;;;;6.25;1.35;;;;;;;;;;5027283;28;20471;-81
2021/05/13 07:07:47;;;;;;;4.63;1.20;;;;;;;;;;5017523;28;20116;-81
2021/05/13 07:10:13;;;;;;;1.67;0.98;;;;;;;;;;5028111;28;20597;-81
2021/05/13 07:12:40;;;;;;;3.75;0.75;;;;;;;;;;5025867;28;20024;-80
2021/05/13 07:15:06;;;;;;;4.73;1.07;;;13.60;66.70;;;;;;5028327;28;20494;-81
2021/05/13 07:17:32;;;;;;;0.70;0.63;;;;;;;;;;5021231;28;20288;-81
2021/05/13 07:19:58;;;;;;;2.17;0.65;;;;;;;;;;5028741;28;20033;-80
2021/05/13 07:22:24;;;;;;;1.00;0.70;;;;;;;;;;5029002;28;20033;-81
2021/05/13 07:24:50;;;;;;;1.55;0.93;;;;;;;;;;5026919;28;20025;-81
2021/05/13 07:27:17;;;;;;;1.15;0.90;;;13.80;43.20;;;;;;5024582;28;20404;-81
2021/05/13 07:29:43;;;;;;;0.63;0.63;;;;;;;;;;5031349;28;20111;-81
2021/05/13 07:32:09;;;;;;;0.70;0.70;;;;;;;;;;5028901;28;20029;-82
2021/05/13 07:34:35;;;;;;;6.03;1.00;;;;;;;;;;5032446;28;20021;-80
2021/05/13 07:37:04;;;;;;;5.40;0.93;;;;;;;;;;5029144;28;20026;-81
2021/05/13 07:39:30;;;;;;;2.30;1.30;;;;;;;;;;5024698;28;20029;-80
2021/05/13 07:41:56;;;;;;;13.20;2.33;;;;;;;;;;5028676;28;20029;-81
2021/05/13 07:44:22;;;;;;;6.43;1.30;;;;;;;;;;5026678;28;20562;-80
2021/05/13 07:46:49;;;;;;;1.70;0.73;;;13.60;42.60;;;;;;5030317;28;20044;-80
2021/05/13 07:49:15;;;;;;;1.42;0.85;;;;;;;;;;5031074;28;20018;-81
2021/05/13 07:51:43;;;;;;;2.25;0.75;;;;;;;;;;5031339;28;20108;-81
2021/05/13 07:54:10;;;;;;;3.28;0.80;;;;;;;;;;5027027;28;20052;-80
2021/05/13 07:56:36;;;;;;;1.15;0.63;;;;;;;;;;5031415;28;20394;-80
2021/05/13 07:59:02;;;;;;;0.40;0.40;;;;;;;;;;5026243;28;20544;-81
2021/05/13 08:01:28;;;;;;;1.02;0.40;;;;;;;;;;5031160;28;20095;-81
2021/05/13 08:03:54;;;;;;;0.80;0.43;;;;;;;;;;5028368;28;20034;-81
2021/05/13 08:06:20;;;;;;;0.45;0.45;;;;;;;;;;5031054;28;20022;-80
2021/05/13 08:08:46;;;;;;;7.65;1.45;;;;;;;;;;5026143;28;20025;-81
2021/05/13 08:11:12;;;;;;;1.75;0.40;;;;;;;;;;5029321;28;20032;-81
2021/05/13 08:13:38;;;;;;;0.50;0.50;;;;;;;;;;5026336;28;20029;-81
2021/05/13 08:16:04;;;;;;;4.15;0.40;;;;;;;;;;5030636;28;20025;-81
2021/05/13 08:18:30;;;;;;;0.95;0.73;;;;;;;;;;5028924;28;20033;-80
2021/05/13 08:20:56;;;;;;;1.08;0.70;;;;;;;;;;5028867;28;20029;-81
2021/05/13 08:23:22;;;;;;;0.32;0.32;;;;;;;;;;5030170;28;20122;-81
2021/05/13 08:25:48;;;;;;;1.80;0.50;;;;;;;;;;5031518;28;20033;-80
2021/05/13 08:28:14;;;;;;;1.38;0.40;;;;;;;;;;5028443;28;20506;-81
2021/05/13 08:30:40;;;;;;;1.70;0.73;;;;;;;;;;5026968;28;20048;-81
2021/05/13 08:33:06;;;;;;;0.77;0.43;;;;;;;;;;5029789;28;20022;-81
2021/05/13 08:35:32;;;;;;;1.75;0.57;;;;;;;;;;5019094;28;20026;-81
2021/05/13 08:37:58;;;;;;;0.60;0.60;;;;;;;;;;5030573;28;20421;-81
2021/05/13 08:40:24;;;;;;;1.05;0.70;;;;;;;;;;5025363;28;20102;-81
2021/05/13 08:42:50;;;;;;;2.28;1.00;;;;;;;;;;5026717;28;20064;-81
2021/05/13 08:45:16;;;;;;;1.58;0.60;;;;;;;;;;5022306;28;20088;-81
2021/05/13 08:47:46;;;;;;;1.25;0.43;;;14.60;38.80;;;;;;5044665;28;20041;-81
2021/05/13 08:50:13;;;;;;;1.17;0.50;;;;;;;;;;5024067;28;20541;-81
2021/05/13 08:52:39;;;;;;;0.63;0.63;;;;;;;;;;5031313;28;20031;-81
2021/05/13 08:55:05;;;;;;;0.20;0.20;;;;;;;;;;5024477;28;20479;-81
2021/05/13 08:57:32;;;;;;;3.30;0.60;;;;;;;;;;5022983;28;20028;-80
2021/05/13 08:59:58;;;;;;;1.08;0.55;;;15.20;36.80;;;;;;5028243;28;20036;-80
2021/05/13 09:02:29;;;;;;;0.88;0.32;;;;;;;;;;5028433;28;20049;-81
2021/05/13 09:04:57;;;;;;;1.98;0.40;;;15.80;35.50;;;;;;5028351;28;20029;-82
2021/05/13 09:07:29;;;;;;;0.38;0.38;;;16.10;35.20;;;;;;5029303;28;20099;-81
2021/05/13 09:10:01;;;;;;;0.63;0.63;;;;;;;;;;5027435;28;20022;-82
2021/05/13 09:12:40;;;;;;;4.43;0.75;;;16.40;37.30;;;;;;5029265;28;20107;-81
2021/05/13 09:15:14;;;;;;;0.50;0.50;;;16.50;60.50;;;;;;5028075;28;20022;-81
2021/05/13 09:17:43;;;;;;;0.65;0.30;;;16.30;37.70;;;;;;5016015;28;20395;-82
2021/05/13 09:20:31;;;;;;;0.55;0.40;;;16.10;37.30;;;;;;5028123;28;20099;-82
2021/05/13 09:23:13;;;;;;;1.02;0.45;;;15.90;38.50;;;;;;5042000;28;20029;-81
2021/05/13 09:25:41;;;;;;;0.43;0.30;;;15.70;40.50;;;;;;5027714;28;20025;-82
2021/05/13 09:28:07;;;;;;;0.45;0.45;;;;;;;;;;5027765;28;20037;-81
2021/05/13 09:30:34;;;;;;;3.13;1.10;;;;;;;;;;5027501;28;20479;-81
2021/05/13 09:33:01;;;;;;;4.13;0.30;;;15.60;40.00;;;;;;5020203;28;20033;-81
2021/05/13 09:35:29;;;;;;;4.97;0.60;;;15.50;40.20;;;;;;5027315;28;20869;-81
2021/05/13 09:37:58;;;;;;;0.52;0.50;;;15.70;40.00;;;;;;5026622;28;20043;-81
2021/05/13 09:40:39;;;;;;;1.58;0.80;;;15.90;38.30;;;;;;5029189;28;20029;-81
2021/05/13 09:43:34;;;;;;;1.08;0.75;;;15.90;37.90;;;;;;5026877;28;20107;-80
2021/05/13 09:46:04;;;;;;;0.20;0.20;;;16.00;40.00;;;;;;5008534;28;20046;-81
2021/05/13 09:48:42;;;;;;;2.30;0.52;;;16.00;59.50;;;;;;5026304;28;20170;-81
2021/05/13 09:51:23;;;;;;;0.65;0.63;;;16.80;35.60;;;;;;5027154;28;20044;-81
2021/05/13 09:54:11;;;;;;;0.30;0.30;;;18.00;33.70;;;;;;5018193;28;20029;-81
2021/05/13 09:56:40;;;;;;;0.30;0.30;;;18.80;32.80;;;;;;4999782;28;20037;-81
2021/05/13 09:59:26;;;;;;;0.50;0.30;;;19.70;51.30;;;;;;5029027;28;20482;-80
2021/05/13 10:01:54;;;;;;;0.15;0.15;;;21.30;29.00;;;;;;5020731;28;20852;-81
2021/05/13 10:04:19;;;;;;;;;;;21.30;28.80;;;;;;5029728;28;20041;-81
2021/05/13 10:06:46;;;;;;;2.63;0.20;;;;;;;;;;5026889;28;19924;-81
2021/05/13 10:09:17;;;;;;;0.20;0.20;;;22.10;28.10;;;;;;5021635;28;20022;-81
2021/05/13 10:11:54;;;;;;;0.20;0.20;;;21.20;27.50;;;;;;5042980;28;20041;-82
2021/05/13 10:14:21;;;;;;;1.27;0.20;;;;;;;;;;5027918;28;20468;-80
2021/05/13 10:16:48;;;;;;;0.10;0.10;;;21.40;29.10;;;;;;5028611;28;20116;-81
2021/05/13 10:19:27;;;;;;;0.40;0.30;;;21.90;27.90;;;;;;5028497;28;20029;-81
2021/05/13 10:21:54;;;;;;;0.20;0.20;;;21.50;29.10;;;;;;5027794;28;20528;-81
2021/05/13 10:24:20;;;;;;;;;;;21.10;28.40;;;;;;5025090;28;20109;-81
2021/05/13 10:26:48;;;;;;;0.10;0.10;;;21.10;29.30;;;;;;5028789;28;19995;-81
2021/05/13 10:29:20;;;;;;;0.10;0.10;;;21.00;36.50;;;;;;5022404;28;20520;-81
2021/05/13 10:32:38;;;;;;;1.83;0.20;;;21.30;29.00;;;;;;5028328;28;20033;-82
2021/05/13 10:35:08;;;;;;;0.43;0.15;;;21.60;48.30;;;;;;5018672;28;20057;-81
2021/05/13 10:37:35;;;;;;;0.40;0.30;;;;;;;;;;5025796;28;20056;-81
2021/05/13 10:40:20;;;;;;;0.10;0.10;;;21.80;49.40;;;;;;5026600;28;20030;-81
2021/05/13 10:42:55;;;;;;;0.30;0.20;;;21.70;28.60;;;;;;5027416;28;20160;-81
2021/05/13 10:45:24;;;;;;;0.15;0.10;;;;;;;;;;5022568;28;20078;-81
2021/05/13 10:48:18;;;;;;;0.10;0.10;;;22.70;37.30;;;;;;5014688;28;20029;-82
2021/05/13 10:50:47;;;;;;;0.10;0.10;;;22.40;28.00;;;;;;5026643;28;20030;-80
2021/05/13 10:53:38;;;;;;;0.73;0.30;;;22.30;27.00;;;;;;5028013;28;20029;-82
2021/05/13 10:56:30;;;;;;;0.10;0.10;;;22.50;27.90;;;;;;5026296;28;20032;-82
2021/05/13 10:59:00;;;;;;;1.25;0.22;;;22.30;47.00;;;;;;5019806;28;20121;-80
2021/05/13 11:01:28;;;;;;;0.38;0.10;;;21.80;44.10;;;;;;5028401;28;20486;-82
2021/05/13 11:04:22;;;;;;;1.15;1.05;;;21.70;27.90;;;;;;5028641;28;20132;-81
2021/05/13 11:06:53;;;;;;;0.13;0.13;;;21.60;27.90;;;;;;5028149;28;20123;-82
2021/05/13 11:09:37;;;;;;;0.47;0.30;;;21.70;28.00;;;;;;5028879;28;20051;-82
2021/05/13 11:12:12;;;;;;;0.52;0.52;;;21.30;35.50;;;;;;5042887;28;20052;-81
2021/05/13 11:14:58;;;;;;;0.10;0.10;;;21.00;48.10;;;;;;5028808;28;20022;-81
2021/05/13 11:20:29;;;;;;;0.10;0.10;;;20.20;28.80;;;;;;5025976;28;20156;-81
2021/05/13 11:23:10;;;;;;;0.50;0.43;;;20.20;28.90;;;;;;5046012;28;20032;-81
2021/05/13 11:25:41;;;;;;;0.40;0.20;;;20.40;48.50;;;;;;5025629;28;20087;-81
2021/05/13 11:28:37;;;;;;;0.20;0.20;;;20.40;41.90;;;;;;5031352;28;20661;-81
2021/05/13 11:31:06;;;;;;;0.20;0.20;;;20.30;28.70;;;;;;5029995;28;20068;-81
2021/05/13 11:33:42;;;;;;;0.68;0.50;;;19.90;50.80;;;;;;5025830;28;20033;-82
2021/05/13 11:36:11;;;;;;;0.20;0.20;;;19.70;30.00;;;;;;5030027;28;20025;-82
2021/05/13 11:38:37;;;;;;;0.20;0.20;;;;;;;;;;5031957;28;20129;-81
2021/05/13 11:41:04;;;;;;;0.20;0.20;;;;;;;;;;5027019;28;20666;-81
2021/05/13 11:43:32;;;;;;;0.20;0.20;;;19.00;32.30;;;;;;5031079;28;20032;-82
2021/05/13 11:46:00;;;;;;;0.20;0.20;;;19.00;30.40;;;;;;5025378;28;20480;-82
2021/05/13 11:48:27;;;;;;;0.20;0.20;;;;;;;;;;5024088;28;20033;-82
2021/05/13 11:50:54;;;;;;;0.20;0.20;;;19.90;30.30;;;;;;5029321;28;20102;-82
2021/05/13 11:53:20;;;;;;;;;;;20.10;28.20;;;;;;5032059;28;20104;-82
2021/05/13 11:55:47;;;;;;;0.10;0.10;;;20.30;30.00;;;;;;5029088;28;20042;-81
2021/05/13 11:58:14;;;;;;;0.32;0.32;;;;;;;;;;5030487;28;20048;-82
2021/05/13 12:00:40;;;;;;;0.20;0.20;;;;;;;;;;5029936;28;20041;-81
2021/05/13 12:03:12;;;;;;;0.40;0.20;;;;;;;;;;5021920;28;20624;-81
2021/05/13 12:06:04;;;;;;;0.22;0.13;;;20.40;29.60;;;;;;5028999;28;20037;-81
2021/05/13 12:08:30;;;;;;;0.35;0.30;;;;;;;;;;5017743;28;20037;-81
2021/05/13 12:10:58;;;;;;;0.30;0.20;;;;;;;;;;5029574;28;20508;-81
2021/05/13 12:13:27;;;;;;;0.20;0.20;;;20.00;28.30;;;;;;5031145;28;20029;-82
2021/05/13 12:16:03;;;;;;;0.20;0.20;;;;;;;;;;5028196;28;20037;-82
2021/05/13 12:18:30;;;;;;;0.20;0.20;;;20.00;29.00;;;;;;5026065;28;20406;-82
2021/05/13 12:20:57;;;;;;;0.57;0.20;;;20.20;29.20;;;;;;5028443;28;20032;-81
2021/05/13 12:23:23;;;;;;;0.20;0.20;;;;;;;;;;5019155;28;20037;-82
2021/05/13 12:25:49;;;;;;;0.20;0.20;;;;;;;;;;5031282;28;20368;-81
2021/05/13 12:28:17;;;;;;;0.40;0.15;;;19.50;29.00;;;;;;5027262;28;20040;-82
2021/05/13 12:30:54;;;;;;;0.10;0.10;;;19.10;29.70;;;;;;5030985;28;20049;-81
2021/05/13 12:33:28;;;;;;;0.30;0.20;;;19.40;29.90;;;;;;5028199;28;20029;-82
2021/05/13 12:35:54;;;;;;;0.73;0.32;;;;;;;;;;5031249;28;20064;-82
2021/05/13 12:38:23;;;;;;;0.60;0.40;;;19.40;30.00;;;;;;5021209;28;20113;-82
2021/05/13 12:41:04;;;;;;;0.30;0.20;;;19.20;29.50;;;;;;5030723;28;20052;-81
2021/05/13 12:43:30;;;;;;;0.22;0.20;;;;;;;;;;5028920;28;20026;-82
2021/05/13 12:45:56;;;;;;;0.77;0.30;;;;;;;;;;5027385;28;20505;-82
2021/05/13 12:48:23;;;;;;;0.20;0.20;;;;;;;;;;5026618;28;20056;-81
2021/05/13 12:51:07;;;;;;;1.20;0.63;;;19.30;32.50;;;;;;5030812;28;20025;-82
2021/05/13 12:53:33;;;;;;;0.40;0.30;;;;;;;;;;5020832;28;20289;-81
2021/05/13 12:56:00;;;;;;;1.52;1.17;;;;;;;;;;5030851;28;20026;-81
2021/05/13 12:58:27;;;;;;;0.63;0.35;;;19.20;30.10;;;;;;5025283;28;20108;-81
2021/05/13 13:01:02;;;;;;;2.53;0.28;;;19.00;30.00;;;;;;5029397;28;20538;-82
2021/05/13 13:03:34;;;;;;;0.50;0.47;;;18.90;34.10;;;;;;5027610;28;20056;-82
2021/05/13 13:06:07;;;;;;;0.30;0.30;;;19.10;53.20;;;;;;5030399;28;20037;-81
2021/05/13 13:08:50;;;;;;;0.20;0.20;;;18.80;36.20;;;;;;5028340;28;20064;-82
2021/05/13 13:11:32;;;;;;;0.30;0.30;;;19.00;32.70;;;;;;5030315;28;20563;-82
2021/05/13 13:14:01;;;;;;;0.30;0.30;;;;;;;;;;5021563;28;20034;-80
2021/05/13 13:16:27;;;;;;;0.45;0.40;;;;;;;;;;5028961;28;20052;-82
2021/05/13 13:19:10;;;;;;;0.20;0.20;;;18.80;31.10;;;;;;5028402;28;20037;-81
2021/05/13 13:21:40;;;;;;;0.30;0.30;;;18.60;34.80;;;;;;5028427;28;20026;-81
2021/05/13 13:24:20;;;;;;;0.20;0.20;;;18.30;37.30;;;;;;5027829;28;20422;-81
2021/05/13 13:26:49;;;;;;;0.25;0.25;;;16.90;36.00;;;;;;5029721;28;20049;-81
2021/05/13 13:29:15;;;;;;;0.20;0.20;;;;;;;;;;5025793;28;20036;-82
2021/05/13 13:31:44;;;;;;;3.10;0.30;;;;;;;;;;5030615;28;20041;-82
2021/05/13 13:34:12;;;;;;;0.30;0.30;;;;;;;;;;5024517;28;20044;-81
2021/05/13 13:36:39;;;;;;;1.38;0.40;;;;;;;;;;5024345;28;20536;-82
2021/05/13 13:39:06;;;;;;;0.40;0.20;;;;;;;;;;5025473;28;20038;-82
2021/05/13 13:41:34;;;;;;;0.90;0.50;;;18.40;36.00;;;;;;5032506;28;20029;-82
2021/05/13 13:44:00;;;;;;;0.40;0.40;;;;;;;;;;5027824;28;20443;-81
2021/05/13 13:46:26;;;;;;;0.20;0.20;;;;;;;;;;5029891;28;20079;-81
2021/05/13 13:48:52;;;;;;;0.73;0.47;;;;;;;;;;5028173;28;20041;-82
2021/05/13 13:51:18;;;;;;;0.28;0.28;;;;;;;;;;5039606;28;22288;-82
2021/05/13 13:53:43;;;;;;;0.57;0.45;;;;;;;;;;5028805;28;20039;-83
2021/05/13 13:56:09;;;;;;;1.23;0.38;;;;;;;;;;5023432;28;20025;-81
2021/05/13 13:58:35;;;;;;;0.20;0.20;;;;;;;;;;5028115;28;20075;-81
2021/05/13 14:01:02;;;;;;;0.85;0.63;;;;;;;;;;5027751;28;20033;-82
2021/05/13 14:03:29;;;;;;;0.28;0.28;;;;;;;;;;5029225;28;20033;-82
2021/05/13 14:05:56;;;;;;;0.63;0.63;;;;;;;;;;5023763;28;20080;-81
2021/05/13 14:08:25;;;;;;;0.60;0.40;;;;;;;;;;5029003;28;20038;-82
2021/05/13 14:10:51;;;;;;;0.35;0.32;;;;;;;;;;5021155;28;20030;-81
2021/05/13 14:13:18;;;;;;;0.43;0.43;;;;;;;;;;5028312;28;20049;-82
2021/05/13 14:15:44;;;;;;;0.52;0.40;;;;;;;;;;5026213;28;20076;-81
2021/05/13 14:18:10;;;;;;;0.40;0.40;;;;;;;;;;5029644;28;20034;-82
2021/05/13 14:20:36;;;;;;;6.60;0.80;;;;;;;;;;5024233;28;20026;-82
2021/05/13 14:23:02;;;;;;;0.30;0.30;;;;;;;;;;5029116;28;20030;-82
2021/05/13 14:25:28;;;;;;;0.30;0.30;;;;;;;;;;5027600;28;20029;-82
2021/05/13 14:27:54;;;;;;;1.75;0.40;;;;;;;;;;5033429;28;20067;-81
2021/05/13 14:30:20;;;;;;;0.70;0.50;;;18.40;59.60;;;;;;5027332;28;20080;-82
2021/05/13 14:32:47;;;;;;;0.32;0.30;;;18.30;38.70;;;;;;5031214;28;20065;-82